createdAt,value
2023-02-16T00:00:22.064Z,17.13
2023-02-16T00:02:49.665Z,17.67
2023-02-16T00:05:28.226Z,16.13
2023-02-16T00:07:58.620Z,15.68
2023-02-16T00:10:27.557Z,13.90
2023-02-16T00:13:14.768Z,19.15
2023-02-16T00:15:42.519Z,18.35
2023-02-16T00:18:19.923Z,18.67
2023-02-16T00:20:50.143Z,16.38
2023-02-16T00:23:17.275Z,16.98
2023-02-16T00:25:44.608Z,16.52
2023-02-16T00:28:17.875Z,16.20
2023-02-16T00:30:45.784Z,16.30
2023-02-16T00:33:17.295Z,18.73
2023-02-16T00:35:44.981Z,25.60
2023-02-16T00:38:12.935Z,16.38
2023-02-16T00:40:41.273Z,14.27
2023-02-16T00:43:10.161Z,16.05
2023-02-16T00:45:38.601Z,18.45
2023-02-16T00:48:05.822Z,17.88
2023-02-16T00:50:34.830Z,16.13
2023-02-16T00:53:02.943Z,24.27
2023-02-16T00:55:34.869Z,17.80
2023-02-16T00:58:16.292Z,20.13
2023-02-16T01:00:52.983Z,19.60
2023-02-16T01:03:24.482Z,20.48
2023-02-16T01:06:12.035Z,20.05
2023-02-16T01:08:59.390Z,15.07
2023-02-16T01:11:27.175Z,18.67
2023-02-16T01:13:55.789Z,19.30
2023-02-16T01:16:33.508Z,21.23
2023-02-16T01:19:00.683Z,23.35
2023-02-16T01:21:27.822Z,18.23
2023-02-16T01:23:55.063Z,16.90
2023-02-16T01:26:22.419Z,17.50
2023-02-16T01:28:49.669Z,14.65
2023-02-16T01:31:18.041Z,25.33
2023-02-16T01:33:45.320Z,21.90
2023-02-16T01:36:37.877Z,17.27
2023-02-16T01:42:14.313Z,15.70
2023-02-16T01:44:52.228Z,18.33
2023-02-16T01:47:49.594Z,16.02
2023-02-16T01:50:25.610Z,14.43
2023-02-16T01:53:16.270Z,18.98
2023-02-16T01:55:46.999Z,18.10
2023-02-16T01:58:43.027Z,16.10
2023-02-16T02:01:39.802Z,15.98
2023-02-16T02:04:48.230Z,20.33
2023-02-16T02:07:25.590Z,21.10
2023-02-16T02:10:16.703Z,22.65
2023-02-16T02:12:55.884Z,21.02
2023-02-16T02:15:29.919Z,22.92
2023-02-16T02:17:57.218Z,23.65
2023-02-16T02:21:17.582Z,24.67
2023-02-16T02:24:24.539Z,27.48
2023-02-16T02:27:25.364Z,27.95
2023-02-16T02:30:16.916Z,30.98
2023-02-16T02:33:10.321Z,44.10
2023-02-16T02:36:20.161Z,60.90
2023-02-16T02:39:17.511Z,50.15
2023-02-16T02:42:10.370Z,43.88
2023-02-16T02:44:52.332Z,56.00
2023-02-16T02:47:19.493Z,47.05
2023-02-16T02:49:54.810Z,52.65
2023-02-16T02:52:23.142Z,58.83
2023-02-16T02:55:10.809Z,54.13
2023-02-16T02:58:03.185Z,35.58
2023-02-16T03:00:41.497Z,52.05
2023-02-16T03:03:49.225Z,58.90
2023-02-16T03:06:26.465Z,40.88
2023-02-16T03:09:02.491Z,36.00
2023-02-16T03:11:49.750Z,31.48
2023-02-16T03:14:41.994Z,54.45
2023-02-16T03:17:35.706Z,28.63
2023-02-16T03:20:27.994Z,66.10
2023-02-16T03:23:16.269Z,45.90
2023-02-16T03:26:04.808Z,83.25
2023-02-16T03:28:54.938Z,34.90
2023-02-16T03:31:25.405Z,63.20
2023-02-16T03:33:54.899Z,87.47
2023-02-16T03:36:26.927Z,34.95
2023-02-16T03:38:56.258Z,45.15
2023-02-16T03:41:24.635Z,97.45
2023-02-16T03:43:52.445Z,80.65
2023-02-16T03:46:19.672Z,120.82
2023-02-16T03:48:46.903Z,84.30
2023-02-16T03:51:14.686Z,147.85
2023-02-16T03:53:41.868Z,53.92
2023-02-16T03:56:09.000Z,116.18
2023-02-16T03:58:36.244Z,114.25
2023-02-16T04:01:03.810Z,124.32
2023-02-16T04:03:31.079Z,76.80
2023-02-16T04:05:58.288Z,61.53
2023-02-16T04:08:25.622Z,96.05
2023-02-16T04:10:54.249Z,74.15
2023-02-16T04:13:21.620Z,100.28
2023-02-16T04:15:49.368Z,44.22
2023-02-16T04:18:16.914Z,80.55
2023-02-16T04:20:44.231Z,45.15
2023-02-16T04:23:11.572Z,34.03
2023-02-16T04:25:38.671Z,95.85
2023-02-16T04:28:05.892Z,79.10
2023-02-16T04:30:33.157Z,18.13
2023-02-16T04:33:00.467Z,54.33
2023-02-16T04:35:27.756Z,16.15
2023-02-16T04:37:54.951Z,71.75
2023-02-16T04:40:22.173Z,86.53
2023-02-16T04:42:49.452Z,22.63
2023-02-16T04:45:16.652Z,58.38
2023-02-16T04:47:44.105Z,18.70
2023-02-16T04:50:11.565Z,17.58
2023-02-16T04:52:38.950Z,47.35
2023-02-16T04:55:07.788Z,24.15
2023-02-16T04:57:35.145Z,54.25
2023-02-16T05:00:02.442Z,74.45
2023-02-16T05:02:29.764Z,54.42
2023-02-16T05:04:56.908Z,31.33
2023-02-16T05:07:24.402Z,55.30
2023-02-16T05:09:51.769Z,28.85
2023-02-16T05:12:38.928Z,134.60
2023-02-16T05:15:07.012Z,40.05
2023-02-16T05:17:34.174Z,37.47
2023-02-16T05:20:02.115Z,26.45
2023-02-16T05:22:29.271Z,77.10
2023-02-16T05:24:56.415Z,62.95
2023-02-16T05:27:26.143Z,34.60
2023-02-16T05:29:53.448Z,36.08
2023-02-16T05:32:21.007Z,41.47
2023-02-16T05:34:48.484Z,37.45
2023-02-16T05:37:17.703Z,49.72
2023-02-16T05:39:45.104Z,41.22
2023-02-16T05:42:12.589Z,34.10
2023-02-16T05:44:39.968Z,34.63
2023-02-16T05:47:07.737Z,52.85
2023-02-16T05:49:35.055Z,71.10
2023-02-16T05:52:02.385Z,29.23
2023-02-16T05:54:29.684Z,61.60
2023-02-16T05:56:56.975Z,82.15
2023-02-16T05:59:24.139Z,53.72
2023-02-16T06:01:52.506Z,59.20
2023-02-16T06:04:22.010Z,61.92
2023-02-16T06:06:49.711Z,37.55
2023-02-16T06:09:17.237Z,40.53
2023-02-16T06:11:44.626Z,67.15
2023-02-16T06:14:15.470Z,24.92
2023-02-16T06:16:44.678Z,53.85
2023-02-16T06:19:13.433Z,97.65
2023-02-16T06:21:41.159Z,63.15
2023-02-16T06:24:09.713Z,33.45
2023-02-16T06:26:37.339Z,23.10
2023-02-16T06:29:05.533Z,34.50
2023-02-16T06:31:36.104Z,41.90
2023-02-16T06:34:04.311Z,46.00
2023-02-16T06:36:31.666Z,35.63
2023-02-16T06:38:58.903Z,14.75
2023-02-16T06:41:32.359Z,32.30
2023-02-16T06:44:00.921Z,26.17
2023-02-16T06:46:29.002Z,32.83
2023-02-16T06:48:56.787Z,21.95
2023-02-16T06:51:24.553Z,18.35
2023-02-16T06:53:52.221Z,28.30
2023-02-16T06:56:19.483Z,61.42
2023-02-16T06:58:46.830Z,63.53
2023-02-16T07:01:14.132Z,56.38
2023-02-16T07:03:41.546Z,41.47
2023-02-16T07:06:08.865Z,28.35
2023-02-16T07:08:36.161Z,33.47
2023-02-16T07:11:04.668Z,36.70
2023-02-16T07:13:36.530Z,41.00
2023-02-16T07:16:05.708Z,72.82
2023-02-16T07:18:34.315Z,69.85
2023-02-16T07:21:01.867Z,74.40
2023-02-16T07:23:29.239Z,129.32
2023-02-16T07:25:56.399Z,68.20
2023-02-16T07:28:23.570Z,81.00
2023-02-16T07:30:51.249Z,68.90
2023-02-16T07:33:19.239Z,47.65
2023-02-16T07:35:46.593Z,44.17
2023-02-16T07:38:13.941Z,54.33
2023-02-16T07:40:42.070Z,51.70
2023-02-16T07:43:09.293Z,56.95
2023-02-16T07:45:36.588Z,40.97
2023-02-16T07:48:04.012Z,44.85
2023-02-16T07:50:31.338Z,48.03
2023-02-16T07:53:00.836Z,46.30
2023-02-16T07:55:28.149Z,44.92
2023-02-16T07:57:58.296Z,36.83
2023-02-16T08:00:26.459Z,38.33
2023-02-16T08:02:53.852Z,38.40
2023-02-16T08:05:21.255Z,44.10
2023-02-16T08:07:48.500Z,42.03
2023-02-16T08:10:16.210Z,38.80
2023-02-16T08:12:44.378Z,33.50
2023-02-16T08:15:12.460Z,26.92
2023-02-16T08:17:39.673Z,34.42
2023-02-16T08:20:09.764Z,46.38
2023-02-16T08:22:37.709Z,37.88
2023-02-16T08:25:06.971Z,40.20
2023-02-16T08:27:35.618Z,29.95
2023-02-16T08:30:03.867Z,30.83
2023-02-16T08:32:31.179Z,36.78
2023-02-16T08:34:58.541Z,38.88
2023-02-16T08:37:25.772Z,32.67
2023-02-16T08:39:53.864Z,41.10
2023-02-16T08:42:21.347Z,37.53
2023-02-16T08:44:48.628Z,35.92
2023-02-16T08:47:17.010Z,32.30
2023-02-16T08:49:44.891Z,47.28
2023-02-16T08:52:12.809Z,32.88
2023-02-16T08:54:40.508Z,39.15
2023-02-16T08:57:07.846Z,36.20
2023-02-16T08:59:35.189Z,35.58
2023-02-16T09:02:02.415Z,33.78
2023-02-16T09:04:30.296Z,32.88
2023-02-16T09:06:58.780Z,32.40
2023-02-16T09:09:27.158Z,28.48
2023-02-16T09:11:54.652Z,25.42
2023-02-16T09:14:23.349Z,27.95
2023-02-16T09:16:50.663Z,25.00
2023-02-16T09:19:21.087Z,29.15
2023-02-16T09:21:51.193Z,28.42
2023-02-16T09:24:19.458Z,26.15
2023-02-16T09:26:46.770Z,27.52
2023-02-16T09:29:14.876Z,29.05
2023-02-16T09:31:44.453Z,29.70
2023-02-16T09:34:21.046Z,31.65
2023-02-16T09:36:49.023Z,27.95
2023-02-16T09:39:17.152Z,32.85
2023-02-16T09:42:10.445Z,31.75
2023-02-16T09:45:17.575Z,29.35
2023-02-16T09:47:47.617Z,25.10
2023-02-16T09:50:52.687Z,27.73
2023-02-16T09:53:39.767Z,30.65
2023-02-16T09:56:27.437Z,26.17
2023-02-16T09:59:17.755Z,30.95
2023-02-16T10:02:13.043Z,33.45
2023-02-16T10:05:13.277Z,25.75
2023-02-16T10:08:09.712Z,28.42
2023-02-16T10:11:36.656Z,29.75
2023-02-16T10:14:34.946Z,38.30
2023-02-16T10:17:28.656Z,46.38
2023-02-16T10:20:14.021Z,42.80
2023-02-16T10:23:02.827Z,37.22
2023-02-16T10:25:44.807Z,39.25
2023-02-16T10:28:23.002Z,30.52
2023-02-16T10:31:03.431Z,30.42
2023-02-16T10:33:46.207Z,29.73
2023-02-16T10:36:33.297Z,34.05
2023-02-16T10:39:16.769Z,26.88
2023-02-16T10:41:51.174Z,35.35
2023-02-16T10:44:31.951Z,31.10
2023-02-16T10:47:04.163Z,31.90
2023-02-16T10:49:36.222Z,36.92
2023-02-16T10:52:05.493Z,31.98
2023-02-16T10:54:33.476Z,28.42
2023-02-16T10:57:07.205Z,32.10
2023-02-16T11:02:27.416Z,27.27
2023-02-16T11:04:57.354Z,29.55
2023-02-16T11:07:27.331Z,34.08
2023-02-16T11:09:57.950Z,28.33
2023-02-16T11:12:40.196Z,29.27
2023-02-16T11:15:24.543Z,28.10
2023-02-16T11:18:05.902Z,25.05
2023-02-16T11:20:36.997Z,24.85
2023-02-16T11:23:25.885Z,25.90
2023-02-16T11:26:29.016Z,26.95
2023-02-16T11:29:18.534Z,24.67
2023-02-16T11:31:46.811Z,27.30
2023-02-16T11:34:36.857Z,27.00
2023-02-16T11:37:22.363Z,27.75
2023-02-16T11:40:18.326Z,22.92
2023-02-16T11:42:49.106Z,29.90
2023-02-16T11:45:36.536Z,26.25
2023-02-16T11:48:12.428Z,24.25
2023-02-16T11:50:55.883Z,25.88
2023-02-16T11:53:26.257Z,24.10
2023-02-16T11:56:18.090Z,23.63
2023-02-16T11:58:45.514Z,28.33
2023-02-16T12:01:29.157Z,23.05
2023-02-16T12:04:27.835Z,24.58
2023-02-16T12:07:17.158Z,24.95
2023-02-16T12:09:53.530Z,27.00
2023-02-16T12:13:00.815Z,21.13
2023-02-16T12:15:35.073Z,23.02
2023-02-16T12:18:42.035Z,22.50
2023-02-16T12:21:49.905Z,21.88
2023-02-16T12:24:48.187Z,21.73
2023-02-16T12:27:48.615Z,24.77
2023-02-16T12:30:52.808Z,20.88
2023-02-16T12:33:38.673Z,23.60
2023-02-16T12:36:45.695Z,23.50
2023-02-16T12:39:41.684Z,19.42
2023-02-16T12:42:37.005Z,19.30
2023-02-16T12:45:19.241Z,19.30
2023-02-16T12:48:12.143Z,23.67
2023-02-16T12:50:44.609Z,21.85
2023-02-16T12:53:39.031Z,27.27
2023-02-16T12:56:14.569Z,19.92
2023-02-16T12:58:46.587Z,22.52
2023-02-16T13:01:19.805Z,17.45
2023-02-16T13:04:14.404Z,20.35
2023-02-16T13:06:55.848Z,20.17
2023-02-16T13:09:56.814Z,24.10
2023-02-16T13:12:53.174Z,22.88
2023-02-16T13:15:30.857Z,24.10
2023-02-16T13:18:04.417Z,18.88
2023-02-16T13:20:32.420Z,23.20
2023-02-16T13:23:39.489Z,23.02
2023-02-16T13:26:43.247Z,19.90
2023-02-16T13:29:41.417Z,21.90
2023-02-16T13:32:38.622Z,23.70
2023-02-16T13:35:45.717Z,26.60
2023-02-16T13:38:52.699Z,22.05
2023-02-16T13:41:55.662Z,17.25
2023-02-16T13:44:32.492Z,25.75
2023-02-16T13:47:00.088Z,20.77
2023-02-16T13:49:42.813Z,23.33
2023-02-16T13:52:49.821Z,23.98
2023-02-16T13:55:28.855Z,23.75
2023-02-16T13:58:04.571Z,21.40
2023-02-16T14:00:38.300Z,21.88
2023-02-16T14:05:44.822Z,25.02
2023-02-16T14:08:25.746Z,20.92
2023-02-16T14:11:05.022Z,20.63
2023-02-16T14:13:50.322Z,16.48
2023-02-16T14:16:29.795Z,19.40
2023-02-16T14:19:17.042Z,21.45
2023-02-16T14:21:49.520Z,18.25
2023-02-16T14:24:38.639Z,15.32
2023-02-16T14:27:10.732Z,17.20
2023-02-16T14:29:59.425Z,20.45
2023-02-16T14:32:39.154Z,17.27
2023-02-16T14:35:17.206Z,19.25
2023-02-16T14:37:56.060Z,19.95
2023-02-16T14:41:00.153Z,16.90
2023-02-16T14:43:47.803Z,19.60
2023-02-16T14:46:54.710Z,18.30
2023-02-16T14:49:57.365Z,19.38
2023-02-16T14:53:04.387Z,15.90
2023-02-16T14:56:04.368Z,18.90
2023-02-16T14:58:56.698Z,17.80
2023-02-16T15:01:24.821Z,22.30
2023-02-16T15:03:54.903Z,16.17
2023-02-16T15:06:44.040Z,16.05
2023-02-16T15:09:23.981Z,14.68
2023-02-16T15:12:17.428Z,15.68
2023-02-16T15:14:54.560Z,15.13
2023-02-16T15:17:44.999Z,14.27
2023-02-16T15:20:34.549Z,12.25
2023-02-16T15:23:08.126Z,14.85
2023-02-16T15:25:38.552Z,17.88
2023-02-16T15:28:22.736Z,16.00
2023-02-16T15:30:59.847Z,13.57
2023-02-16T15:33:55.305Z,12.85
2023-02-16T15:36:35.466Z,19.02
2023-02-16T15:39:07.388Z,15.48
2023-02-16T15:41:40.966Z,12.32
2023-02-16T15:44:28.416Z,16.40
2023-02-16T15:47:17.745Z,16.83
2023-02-16T15:49:45.208Z,15.57
2023-02-16T15:52:19.492Z,16.48
2023-02-16T15:54:48.946Z,20.15
2023-02-16T15:57:37.267Z,17.30
2023-02-16T16:00:15.924Z,16.48
2023-02-16T16:02:47.536Z,18.40
2023-02-16T16:05:42.120Z,20.00
2023-02-16T16:08:14.434Z,14.32
2023-02-16T16:10:44.293Z,15.73
2023-02-16T16:13:24.209Z,17.05
2023-02-16T16:15:52.926Z,13.40
2023-02-16T16:18:43.544Z,15.70
2023-02-16T16:21:20.871Z,17.13
2023-02-16T16:23:56.669Z,17.63
2023-02-16T16:26:24.997Z,12.77
2023-02-16T16:28:52.839Z,15.98
2023-02-16T16:31:42.107Z,14.80
2023-02-16T16:34:29.995Z,17.77
2023-02-16T16:36:59.189Z,12.52
2023-02-16T16:39:31.661Z,15.32
2023-02-16T16:42:18.951Z,13.35
2023-02-16T16:45:02.648Z,15.15
2023-02-16T16:47:41.760Z,14.68
2023-02-16T16:50:33.819Z,16.70
2023-02-16T16:53:01.835Z,16.20
2023-02-16T16:55:32.976Z,16.38
2023-02-16T16:58:06.055Z,14.30
2023-02-16T17:00:36.314Z,12.43
2023-02-16T17:03:06.265Z,13.27
2023-02-16T17:05:36.012Z,14.02
2023-02-16T17:08:03.154Z,11.90
2023-02-16T17:10:30.610Z,9.90
2023-02-16T17:13:00.067Z,12.65
2023-02-16T17:15:56.973Z,17.25
2023-02-16T17:18:24.268Z,13.90
2023-02-16T17:20:51.944Z,15.52
2023-02-16T17:23:21.770Z,13.88
2023-02-16T17:25:49.181Z,13.15
2023-02-16T17:28:17.696Z,11.63
2023-02-16T17:30:45.482Z,9.98
2023-02-16T17:33:12.852Z,15.50
2023-02-16T17:35:43.011Z,12.90
2023-02-16T17:38:19.145Z,12.02
2023-02-16T17:40:51.276Z,13.35
2023-02-16T17:43:19.933Z,13.55
2023-02-16T17:45:49.548Z,12.65
2023-02-16T17:48:20.785Z,14.70
2023-02-16T17:50:49.465Z,15.98
2023-02-16T17:53:18.681Z,16.90
2023-02-16T17:55:48.282Z,19.75
2023-02-16T17:58:16.807Z,14.43
2023-02-16T18:00:44.947Z,12.63
2023-02-16T18:03:12.211Z,16.63
2023-02-16T18:05:40.045Z,10.55
2023-02-16T18:08:07.916Z,15.25
2023-02-16T18:11:02.232Z,12.63
2023-02-16T18:15:58.510Z,14.85
2023-02-16T18:18:25.884Z,15.43
2023-02-16T18:20:53.315Z,12.43
2023-02-16T18:23:20.771Z,14.18
2023-02-16T18:25:47.966Z,15.40
2023-02-16T18:28:21.154Z,12.70
2023-02-16T18:30:50.748Z,13.32
2023-02-16T18:33:21.220Z,9.63
2023-02-16T18:35:50.946Z,11.00
2023-02-16T18:38:21.368Z,15.88
2023-02-16T18:40:49.567Z,12.95
2023-02-16T18:43:16.659Z,11.95
2023-02-16T18:45:44.020Z,12.55
2023-02-16T18:48:11.454Z,15.85
2023-02-16T18:50:38.771Z,16.08
2023-02-16T18:53:06.808Z,13.52
2023-02-16T18:55:34.125Z,11.35
2023-02-16T18:58:02.389Z,15.43
2023-02-16T19:00:29.692Z,15.32
2023-02-16T19:02:57.111Z,10.90
2023-02-16T19:05:25.315Z,12.93
2023-02-16T19:07:52.683Z,13.57
2023-02-16T19:10:19.959Z,13.30
2023-02-16T19:12:47.079Z,15.07
2023-02-16T19:15:14.447Z,13.93
2023-02-16T19:17:41.660Z,13.45
2023-02-16T19:20:12.228Z,14.65
2023-02-16T19:22:39.847Z,15.77
2023-02-16T19:25:07.478Z,14.18
2023-02-16T19:27:35.189Z,13.00
2023-02-16T19:30:02.452Z,15.27
2023-02-16T19:32:29.802Z,14.93
2023-02-16T19:34:56.971Z,15.68
2023-02-16T19:37:24.398Z,14.98
2023-02-16T19:39:51.556Z,14.23
2023-02-16T19:42:18.744Z,19.90
2023-02-16T19:44:45.864Z,17.08
2023-02-16T19:47:13.066Z,14.23
2023-02-16T19:49:40.296Z,15.68
2023-02-16T19:52:07.639Z,14.95
2023-02-16T19:54:35.927Z,12.38
2023-02-16T19:57:04.241Z,10.77
2023-02-16T19:59:32.663Z,16.38
2023-02-16T20:01:59.930Z,16.13
2023-02-16T20:04:27.456Z,14.25
2023-02-16T20:06:54.799Z,11.50
2023-02-16T20:09:22.864Z,12.77
2023-02-16T20:11:50.883Z,10.32
2023-02-16T20:14:18.209Z,15.40
2023-02-16T20:16:45.773Z,22.02
2023-02-16T20:19:13.674Z,14.48
2023-02-16T20:21:44.216Z,16.30
2023-02-16T20:24:12.010Z,18.30
2023-02-16T20:26:43.486Z,18.08
2023-02-16T20:29:16.567Z,13.25
2023-02-16T20:31:53.237Z,12.88
2023-02-16T20:34:21.435Z,14.88
2023-02-16T20:36:49.021Z,12.70
2023-02-16T20:39:16.403Z,13.68
2023-02-16T20:41:44.447Z,19.52
2023-02-16T20:44:12.467Z,16.35
2023-02-16T20:46:40.762Z,15.10
2023-02-16T20:49:08.777Z,14.10
2023-02-16T20:51:36.740Z,15.98
2023-02-16T20:54:05.267Z,13.63
2023-02-16T20:56:32.491Z,18.15
2023-02-16T20:58:59.963Z,18.50
2023-02-16T21:01:31.102Z,14.20
2023-02-16T21:04:00.010Z,14.88
2023-02-16T21:06:28.452Z,12.95
2023-02-16T21:08:56.629Z,13.27
2023-02-16T21:11:24.263Z,14.63
2023-02-16T21:13:52.071Z,19.65
2023-02-16T21:16:19.357Z,15.45
2023-02-16T21:18:46.721Z,18.08
2023-02-16T21:21:15.888Z,14.55
2023-02-16T21:23:45.534Z,13.85
2023-02-16T21:26:13.500Z,14.15
2023-02-16T21:28:40.764Z,21.45
2023-02-16T21:31:11.965Z,17.15
2023-02-16T21:33:39.888Z,20.02
2023-02-16T21:36:10.416Z,14.68
2023-02-16T21:38:38.602Z,17.60
2023-02-16T21:41:28.364Z,23.05
2023-02-16T21:44:03.053Z,26.02
2023-02-16T21:46:34.776Z,20.35
2023-02-16T21:49:02.268Z,22.83
2023-02-16T21:51:33.424Z,22.63
2023-02-16T21:54:01.256Z,19.38
2023-02-16T21:56:37.875Z,18.45
2023-02-16T21:59:07.749Z,17.20
2023-02-16T22:01:42.636Z,20.08
2023-02-16T22:04:16.341Z,19.25
2023-02-16T22:09:15.694Z,19.98
2023-02-16T22:11:43.594Z,22.20
2023-02-16T22:14:10.802Z,20.95
2023-02-16T22:16:39.279Z,18.20
2023-02-16T22:19:09.694Z,22.77
2023-02-16T22:21:40.673Z,17.08
2023-02-16T22:24:11.145Z,17.95
2023-02-16T22:26:38.443Z,25.05
2023-02-16T22:29:07.592Z,20.27
2023-02-16T22:31:36.019Z,21.77
2023-02-16T22:34:05.635Z,24.75
2023-02-16T22:36:33.437Z,27.60
2023-02-16T22:39:00.676Z,20.27
2023-02-16T22:41:27.958Z,33.45
2023-02-16T22:43:56.516Z,33.97
2023-02-16T22:46:25.140Z,29.50
2023-02-16T22:48:52.685Z,29.08
2023-02-16T22:51:21.517Z,33.92
2023-02-16T22:53:48.758Z,40.72
2023-02-16T22:56:19.041Z,39.63
2023-02-16T22:58:47.179Z,29.67
2023-02-16T23:01:17.618Z,33.28
2023-02-16T23:03:53.571Z,36.97
2023-02-16T23:06:42.074Z,30.67
2023-02-16T23:09:15.119Z,32.92
2023-02-16T23:11:42.591Z,28.00
2023-02-16T23:14:16.689Z,37.25
2023-02-16T23:16:51.002Z,27.58
2023-02-16T23:19:22.701Z,31.80
2023-02-16T23:21:50.715Z,29.67
2023-02-16T23:24:20.603Z,31.15
2023-02-16T23:26:48.161Z,30.48
2023-02-16T23:29:15.469Z,33.58
2023-02-16T23:31:44.781Z,23.63
2023-02-16T23:34:12.039Z,27.20
2023-02-16T23:36:39.443Z,36.42
2023-02-16T23:39:10.491Z,38.88
2023-02-16T23:41:38.902Z,24.13
2023-02-16T23:44:06.872Z,32.00
2023-02-16T23:46:34.454Z,27.98
2023-02-16T23:49:01.790Z,26.25
2023-02-16T23:51:29.070Z,33.58
2023-02-16T23:53:56.880Z,29.13
2023-02-16T23:56:27.114Z,30.00
2023-02-16T23:58:58.622Z,29.88
